createdAt,value
2023-08-21T00:00:26.154Z,23.25
2023-08-21T00:03:49.396Z,23.08
2023-08-21T00:07:15.405Z,22.94
2023-08-21T00:10:40.516Z,23.23
2023-08-21T00:14:04.687Z,22.85
2023-08-21T00:17:28.339Z,23.04
2023-08-21T00:20:52.361Z,22.89
2023-08-21T00:24:17.468Z,22.92
2023-08-21T00:27:41.587Z,23.41
2023-08-21T00:31:05.686Z,22.68
2023-08-21T00:34:29.947Z,22.43
2023-08-21T00:37:53.583Z,22.71
2023-08-21T00:41:19.283Z,22.75
2023-08-21T00:44:43.416Z,22.76
2023-08-21T00:48:08.226Z,22.90
2023-08-21T00:51:31.799Z,22.82
2023-08-21T00:54:55.940Z,22.79
2023-08-21T00:58:20.984Z,23.08
2023-08-21T01:01:45.024Z,22.82
2023-08-21T01:05:08.912Z,22.46
2023-08-21T01:08:37.128Z,22.90
2023-08-21T01:12:05.536Z,22.74
2023-08-21T01:15:30.960Z,22.76
2023-08-21T01:18:54.693Z,22.68
2023-08-21T01:22:19.688Z,22.72
2023-08-21T01:25:45.575Z,22.57
2023-08-21T01:29:09.614Z,22.52
2023-08-21T01:32:38.593Z,22.48
2023-08-21T01:36:03.864Z,22.45
2023-08-21T01:39:28.251Z,22.61
2023-08-21T01:42:55.465Z,22.60
2023-08-21T01:46:19.056Z,22.46
2023-08-21T01:49:43.481Z,22.58
2023-08-21T01:53:07.246Z,22.42
2023-08-21T01:56:31.204Z,22.42
2023-08-21T01:59:56.275Z,22.45
2023-08-21T02:03:20.577Z,22.54
2023-08-21T02:06:45.542Z,22.61
2023-08-21T02:10:10.894Z,22.55
2023-08-21T02:13:35.531Z,22.57
2023-08-21T02:17:01.214Z,22.61
2023-08-21T02:20:25.104Z,22.74
2023-08-21T02:23:48.728Z,22.66
2023-08-21T02:27:13.167Z,22.63
2023-08-21T02:30:36.905Z,22.61
2023-08-21T02:34:02.620Z,22.67
2023-08-21T02:37:26.381Z,22.68
2023-08-21T02:40:51.773Z,22.66
2023-08-21T02:44:15.492Z,22.95
2023-08-21T02:47:40.192Z,22.77
2023-08-21T02:51:06.108Z,22.58
2023-08-21T02:54:30.027Z,22.48
2023-08-21T02:57:53.398Z,22.57
2023-08-21T03:01:18.539Z,22.73
2023-08-21T03:04:42.509Z,22.75
2023-08-21T03:08:08.084Z,22.59
2023-08-21T03:11:31.651Z,22.40
2023-08-21T03:14:56.048Z,22.87
2023-08-21T03:18:20.090Z,22.63
2023-08-21T03:21:44.409Z,22.79
2023-08-21T03:25:10.485Z,22.82
2023-08-21T03:28:34.300Z,22.79
2023-08-21T03:31:57.969Z,22.74
2023-08-21T03:35:22.583Z,22.49
2023-08-21T03:38:46.279Z,22.47
2023-08-21T03:42:12.218Z,22.57
2023-08-21T03:45:36.089Z,22.37
2023-08-21T03:49:00.892Z,22.16
2023-08-21T03:52:24.569Z,21.86
2023-08-21T03:55:48.482Z,21.86
2023-08-21T03:59:13.608Z,22.00
2023-08-21T04:02:38.044Z,21.91
2023-08-21T04:06:02.114Z,21.92
2023-08-21T04:09:26.714Z,22.28
2023-08-21T04:12:50.460Z,22.00
2023-08-21T04:16:19.240Z,21.78
2023-08-21T04:19:45.377Z,21.71
2023-08-21T04:23:08.805Z,21.67
2023-08-21T04:26:33.156Z,21.54
2023-08-21T04:29:56.877Z,21.59
2023-08-21T04:33:22.644Z,21.67
2023-08-21T04:36:46.052Z,21.73
2023-08-21T04:40:11.555Z,21.81
2023-08-21T04:43:35.775Z,21.97
2023-08-21T04:47:00.484Z,22.27
2023-08-21T04:50:25.861Z,22.11
2023-08-21T04:53:51.251Z,22.13
2023-08-21T04:57:15.236Z,22.29
2023-08-21T05:00:39.309Z,22.45
2023-08-21T05:04:03.001Z,22.64
2023-08-21T05:07:30.730Z,22.70
2023-08-21T05:10:58.562Z,22.67
2023-08-21T05:14:23.334Z,22.86
2023-08-21T05:17:47.850Z,23.12
2023-08-21T05:21:12.523Z,23.14
2023-08-21T05:24:41.546Z,23.26
2023-08-21T05:28:06.002Z,23.40
2023-08-21T05:31:29.901Z,23.61
2023-08-21T05:34:54.364Z,23.76
2023-08-21T05:38:19.396Z,23.92
2023-08-21T05:41:44.874Z,24.15
2023-08-21T05:45:10.258Z,24.38
2023-08-21T05:48:35.489Z,24.67
2023-08-21T05:52:00.152Z,24.93
2023-08-21T05:55:24.302Z,25.07
2023-08-21T05:58:49.187Z,25.27
2023-08-21T06:02:13.121Z,25.43
2023-08-21T06:05:37.767Z,25.51
2023-08-21T06:09:01.212Z,25.83
2023-08-21T06:12:25.299Z,26.02
2023-08-21T06:15:51.846Z,26.31
2023-08-21T06:19:16.872Z,26.33
2023-08-21T06:22:40.996Z,26.68
2023-08-21T06:26:06.322Z,27.01
2023-08-21T06:29:30.460Z,27.05
2023-08-21T06:32:55.903Z,27.15
2023-08-21T06:36:21.126Z,27.59
2023-08-21T06:39:45.006Z,27.81
2023-08-21T06:43:09.033Z,28.02
2023-08-21T06:46:36.640Z,28.11
2023-08-21T06:50:02.324Z,28.19
2023-08-21T06:53:27.056Z,28.26
2023-08-21T06:56:50.808Z,28.58
2023-08-21T07:00:15.993Z,28.70
2023-08-21T07:03:39.634Z,28.77
2023-08-21T07:07:05.486Z,28.96
2023-08-21T07:10:29.007Z,29.29
2023-08-21T07:13:53.304Z,29.08
2023-08-21T07:17:17.238Z,29.52
2023-08-21T07:20:41.234Z,29.62
2023-08-21T07:24:07.362Z,29.94
2023-08-21T07:27:31.236Z,30.07
2023-08-21T07:30:58.484Z,30.17
2023-08-21T07:34:22.962Z,30.26
2023-08-21T07:37:47.050Z,30.30
2023-08-21T07:41:13.883Z,30.53
2023-08-21T07:44:37.618Z,31.08
2023-08-21T07:48:13.954Z,30.85
2023-08-21T07:51:39.150Z,30.96
2023-08-21T07:55:04.320Z,30.83
2023-08-21T07:58:29.770Z,31.23
2023-08-21T08:01:54.507Z,30.99
2023-08-21T08:05:19.151Z,31.28
2023-08-21T08:08:42.822Z,31.39
2023-08-21T08:12:09.429Z,31.51
2023-08-21T08:15:35.571Z,31.41
2023-08-21T08:19:00.324Z,31.67
2023-08-21T08:22:23.702Z,31.67
2023-08-21T08:25:48.109Z,32.04
2023-08-21T08:29:12.040Z,32.10
2023-08-21T08:32:38.031Z,32.03
2023-08-21T08:36:01.898Z,32.47
2023-08-21T08:39:26.458Z,32.97
2023-08-21T08:42:50.378Z,33.09
2023-08-21T08:46:14.410Z,33.07
2023-08-21T08:49:39.794Z,33.12
2023-08-21T08:53:15.323Z,33.33
2023-08-21T08:56:40.837Z,33.75
2023-08-21T09:00:05.422Z,34.35
2023-08-21T09:03:30.843Z,34.49
2023-08-21T09:07:08.633Z,34.73
2023-08-21T09:10:32.396Z,34.69
2023-08-21T09:13:57.091Z,35.03
2023-08-21T09:17:21.216Z,35.06
2023-08-21T09:20:45.707Z,35.21
2023-08-21T09:24:11.144Z,35.75
2023-08-21T09:27:35.357Z,36.12
2023-08-21T09:30:59.778Z,36.47
2023-08-21T09:34:26.608Z,36.50
2023-08-21T09:37:50.412Z,37.09
2023-08-21T09:41:15.850Z,36.62
2023-08-21T09:44:40.583Z,36.32
2023-08-21T09:48:04.634Z,36.79
2023-08-21T09:51:28.198Z,36.36
2023-08-21T09:54:51.420Z,37.26
2023-08-21T09:58:15.415Z,36.96
2023-08-21T10:01:40.038Z,36.69
2023-08-21T10:05:04.607Z,37.13
2023-08-21T10:08:28.621Z,37.18
2023-08-21T10:11:53.043Z,37.15
2023-08-21T10:15:18.063Z,37.20
2023-08-21T10:18:46.133Z,38.13
2023-08-21T10:22:10.102Z,37.51
2023-08-21T10:25:34.416Z,36.95
2023-08-21T10:29:00.522Z,37.26
2023-08-21T10:32:27.013Z,37.68
2023-08-21T10:35:50.592Z,38.43
2023-08-21T10:39:18.601Z,37.82
2023-08-21T10:42:42.795Z,37.85
2023-08-21T10:46:06.883Z,38.16
2023-08-21T10:49:33.762Z,38.36
2023-08-21T10:52:59.513Z,37.81
2023-08-21T10:56:23.803Z,38.05
2023-08-21T10:59:55.624Z,38.19
2023-08-21T11:03:19.582Z,38.65
2023-08-21T11:06:46.159Z,39.35
2023-08-21T11:10:12.369Z,39.17
2023-08-21T11:13:37.311Z,39.61
2023-08-21T11:17:02.702Z,39.15
2023-08-21T11:20:30.209Z,38.76
2023-08-21T11:23:55.225Z,38.35
2023-08-21T11:27:22.125Z,39.12
2023-08-21T11:30:48.164Z,39.25
2023-08-21T11:34:23.114Z,39.29
2023-08-21T11:37:48.579Z,39.38
2023-08-21T11:41:14.089Z,39.12
2023-08-21T11:44:43.033Z,39.41
2023-08-21T11:48:06.975Z,39.20
2023-08-21T11:51:29.895Z,39.45
2023-08-21T11:54:53.542Z,39.11
2023-08-21T11:58:20.960Z,39.20
2023-08-21T12:01:44.928Z,39.41
2023-08-21T12:05:10.714Z,39.61
2023-08-21T12:08:35.143Z,39.82
2023-08-21T12:11:58.984Z,39.10
2023-08-21T12:15:23.747Z,40.80
2023-08-21T12:18:48.129Z,40.35
2023-08-21T12:22:11.731Z,40.55
2023-08-21T12:25:36.212Z,40.76
2023-08-21T12:29:00.768Z,40.92
2023-08-21T12:32:26.486Z,40.61
2023-08-21T12:35:50.531Z,40.58
2023-08-21T12:39:15.542Z,40.99
2023-08-21T12:42:39.459Z,41.10
2023-08-21T12:46:03.580Z,40.94
2023-08-21T12:49:29.041Z,40.32
2023-08-21T12:52:53.065Z,40.45
2023-08-21T12:56:17.097Z,40.83
2023-08-21T12:59:40.890Z,40.67
2023-08-21T13:03:05.004Z,40.78
2023-08-21T13:06:30.831Z,41.25
2023-08-21T13:09:54.665Z,40.71
2023-08-21T13:13:19.008Z,41.06
2023-08-21T13:16:43.479Z,40.61
2023-08-21T13:20:10.151Z,40.88
2023-08-21T13:23:36.048Z,40.45
2023-08-21T13:27:00.502Z,40.00
2023-08-21T13:30:24.889Z,40.75
2023-08-21T13:33:51.509Z,40.82
2023-08-21T13:37:16.364Z,40.77
2023-08-21T13:40:43.145Z,41.50
2023-08-21T13:44:09.858Z,41.15
2023-08-21T13:47:34.123Z,40.46
2023-08-21T13:50:58.079Z,39.42
2023-08-21T13:54:22.060Z,38.57
2023-08-21T13:57:47.441Z,39.67
2023-08-21T14:01:11.730Z,39.89
2023-08-21T14:04:36.213Z,40.68
2023-08-21T14:07:59.529Z,41.01
2023-08-21T14:11:24.192Z,40.25
2023-08-21T14:14:49.809Z,40.31
2023-08-21T14:18:14.040Z,40.37
2023-08-21T14:21:37.971Z,41.07
2023-08-21T14:25:02.191Z,40.68
2023-08-21T14:28:25.479Z,41.18
2023-08-21T14:31:54.664Z,40.48
2023-08-21T14:35:18.406Z,40.47
2023-08-21T14:38:42.901Z,41.00
2023-08-21T14:42:05.968Z,40.75
2023-08-21T14:45:29.434Z,40.90
2023-08-21T14:48:54.029Z,40.97
2023-08-21T14:52:17.942Z,40.60
2023-08-21T14:55:41.523Z,40.23
2023-08-21T14:59:06.011Z,40.52
2023-08-21T15:02:29.612Z,40.17
2023-08-21T15:05:55.495Z,40.51
2023-08-21T15:09:18.371Z,39.81
2023-08-21T15:12:42.546Z,40.00
2023-08-21T15:16:06.500Z,40.10
2023-08-21T15:19:30.662Z,40.12
2023-08-21T15:22:55.744Z,40.09
2023-08-21T15:26:20.135Z,40.17
2023-08-21T15:29:43.973Z,39.72
2023-08-21T15:33:08.413Z,39.30
2023-08-21T15:36:32.111Z,39.35
2023-08-21T15:39:57.930Z,39.41
2023-08-21T15:43:21.271Z,39.25
2023-08-21T15:46:45.656Z,38.91
2023-08-21T15:50:10.354Z,39.17
2023-08-21T15:53:34.417Z,39.23
2023-08-21T15:56:59.669Z,37.98
2023-08-21T16:00:24.068Z,39.09
2023-08-21T16:03:48.188Z,38.02
2023-08-21T16:07:12.252Z,38.46
2023-08-21T16:10:35.896Z,38.14
2023-08-21T16:14:03.265Z,37.96
2023-08-21T16:17:27.487Z,38.31
2023-08-21T16:20:51.254Z,37.92
2023-08-21T16:24:15.420Z,37.39
2023-08-21T16:27:39.292Z,37.99
2023-08-21T16:31:04.715Z,37.52
2023-08-21T16:34:28.459Z,37.47
2023-08-21T16:37:52.311Z,37.21
2023-08-21T16:41:16.187Z,36.87
2023-08-21T16:44:40.127Z,36.47
2023-08-21T16:48:05.713Z,35.34
2023-08-21T16:51:29.731Z,35.48
2023-08-21T16:54:54.231Z,35.35
2023-08-21T16:58:19.313Z,34.76
2023-08-21T17:01:43.522Z,33.78
2023-08-21T17:05:10.039Z,33.51
2023-08-21T17:08:33.331Z,33.32
2023-08-21T17:11:57.897Z,33.14
2023-08-21T17:15:23.063Z,32.77
2023-08-21T17:18:48.826Z,32.77
2023-08-21T17:22:15.205Z,32.82
2023-08-21T17:25:39.802Z,32.30
2023-08-21T17:29:05.467Z,32.12
2023-08-21T17:32:30.271Z,31.73
2023-08-21T17:35:54.406Z,31.58
2023-08-21T17:39:21.025Z,31.14
2023-08-21T17:42:45.982Z,30.84
2023-08-21T17:46:11.634Z,30.78
2023-08-21T17:49:35.998Z,30.37
2023-08-21T17:53:04.874Z,30.40
2023-08-21T17:56:31.971Z,30.16
2023-08-21T17:59:57.442Z,29.90
2023-08-21T18:03:22.508Z,29.89
2023-08-21T18:06:48.276Z,29.95
2023-08-21T18:10:14.042Z,29.40
2023-08-21T18:13:41.360Z,29.21
2023-08-21T18:17:10.666Z,29.13
2023-08-21T18:21:01.585Z,29.38
2023-08-21T18:24:26.882Z,29.40
2023-08-21T18:27:52.746Z,29.25
2023-08-21T18:31:19.720Z,28.91
2023-08-21T18:34:44.267Z,28.90
2023-08-21T18:38:11.007Z,28.75
2023-08-21T18:41:36.120Z,28.83
2023-08-21T18:45:01.804Z,28.92
2023-08-21T18:48:29.046Z,28.74
2023-08-21T18:51:53.840Z,28.71
2023-08-21T18:55:20.126Z,28.97
2023-08-21T18:58:45.128Z,28.76
2023-08-21T19:02:12.405Z,28.58
2023-08-21T19:05:39.698Z,28.55
2023-08-21T19:09:06.799Z,28.62
2023-08-21T19:12:32.653Z,28.27
2023-08-21T19:15:59.210Z,28.18
2023-08-21T19:19:24.279Z,27.99
2023-08-21T19:22:54.078Z,27.85
2023-08-21T19:26:21.423Z,27.93
2023-08-21T19:29:49.017Z,27.86
2023-08-21T19:33:15.636Z,27.84
2023-08-21T19:36:41.586Z,27.59
2023-08-21T19:40:09.594Z,27.33
2023-08-21T19:43:36.248Z,27.37
2023-08-21T19:47:04.320Z,27.09
2023-08-21T19:50:31.457Z,26.84
2023-08-21T19:53:57.911Z,26.95
2023-08-21T19:57:33.856Z,27.02
2023-08-21T20:01:00.534Z,27.05
2023-08-21T20:04:30.297Z,26.86
2023-08-21T20:07:56.236Z,26.84
2023-08-21T20:11:20.674Z,26.76
2023-08-21T20:14:47.923Z,26.39
2023-08-21T20:18:12.372Z,26.47
2023-08-21T20:21:40.304Z,26.45
2023-08-21T20:25:07.848Z,26.61
2023-08-21T20:28:32.334Z,26.36
2023-08-21T20:32:01.291Z,25.79
2023-08-21T20:35:25.755Z,26.05
2023-08-21T20:38:52.307Z,25.89
2023-08-21T20:42:17.702Z,25.82
2023-08-21T20:45:44.555Z,25.69
2023-08-21T20:49:11.356Z,25.75
2023-08-21T20:52:37.543Z,25.18
2023-08-21T20:56:02.531Z,25.66
2023-08-21T20:59:27.549Z,24.96
2023-08-21T21:02:51.703Z,25.42
2023-08-21T21:06:17.427Z,25.16
2023-08-21T21:09:41.114Z,25.18
2023-08-21T21:13:05.432Z,25.17
2023-08-21T21:16:29.329Z,25.03
2023-08-21T21:19:53.520Z,24.99
2023-08-21T21:23:18.606Z,24.91
2023-08-21T21:26:42.745Z,24.76
2023-08-21T21:30:07.756Z,24.71
2023-08-21T21:33:31.778Z,24.80
2023-08-21T21:36:55.562Z,24.34
2023-08-21T21:40:20.989Z,24.39
2023-08-21T21:43:45.174Z,24.48
2023-08-21T21:50:32.602Z,24.40
2023-08-21T21:53:59.846Z,24.31
2023-08-21T21:57:26.151Z,24.39
2023-08-21T22:00:50.466Z,24.15
2023-08-21T22:04:14.631Z,24.58
2023-08-21T22:07:39.394Z,24.50
2023-08-21T22:11:07.264Z,24.35
2023-08-21T22:14:32.679Z,24.19
2023-08-21T22:17:57.389Z,24.08
2023-08-21T22:21:21.314Z,24.01
2023-08-21T22:24:45.706Z,24.07
2023-08-21T22:28:10.040Z,23.96
2023-08-21T22:31:41.702Z,23.88
2023-08-21T22:35:07.856Z,23.90
2023-08-21T22:38:32.323Z,23.59
2023-08-21T22:41:56.460Z,23.38
2023-08-21T22:45:21.160Z,23.20
2023-08-21T22:48:46.632Z,23.16
2023-08-21T22:52:11.148Z,23.20
2023-08-21T22:55:37.172Z,23.30
2023-08-21T22:59:01.954Z,22.80
2023-08-21T23:02:26.300Z,22.86
2023-08-21T23:06:01.016Z,22.52
2023-08-21T23:09:24.909Z,22.88
2023-08-21T23:12:49.641Z,22.94
2023-08-21T23:16:13.710Z,23.23
2023-08-21T23:19:38.298Z,22.96
2023-08-21T23:23:03.510Z,22.91
2023-08-21T23:26:28.040Z,22.89
2023-08-21T23:29:52.834Z,22.93
2023-08-21T23:33:17.571Z,22.99
2023-08-21T23:36:42.208Z,23.23
2023-08-21T23:40:10.759Z,23.19
2023-08-21T23:43:34.607Z,22.98
2023-08-21T23:46:59.093Z,22.82
2023-08-21T23:50:22.983Z,22.89
2023-08-21T23:53:46.958Z,22.70
2023-08-21T23:57:12.168Z,22.61
